createdAt,value
2023-05-05T00:00:43.308Z,101281.97
2023-05-05T00:02:45.052Z,101283.66
2023-05-05T00:04:46.814Z,101291.94
2023-05-05T00:06:48.927Z,101285.22
2023-05-05T00:08:50.654Z,101280.78
2023-05-05T00:10:53.657Z,101277.28
2023-05-05T00:12:55.184Z,101278.38
2023-05-05T00:14:57.001Z,101277.28
2023-05-05T00:16:58.829Z,101272.84
2023-05-05T00:19:00.440Z,101275.94
2023-05-05T00:21:02.374Z,101285.34
2023-05-05T00:23:04.176Z,101281.97
2023-05-05T00:25:06.202Z,101268.38
2023-05-05T00:27:07.830Z,101291.13
2023-05-05T00:29:09.481Z,101282.81
2023-05-05T00:31:11.194Z,101285.34
2023-05-05T00:33:12.715Z,101274.78
2023-05-05T00:35:14.374Z,101264.41
2023-05-05T00:37:16.600Z,101271.78
2023-05-05T00:39:18.175Z,101262.13
2023-05-05T00:41:19.739Z,101262.75
2023-05-05T00:43:21.422Z,101258.31
2023-05-05T00:45:22.963Z,101258.31
2023-05-05T00:47:24.792Z,101262.13
2023-05-05T00:49:26.418Z,101260.00
2023-05-05T00:51:28.586Z,101256.38
2023-05-05T00:53:30.118Z,101263.00
2023-05-05T00:55:33.342Z,101272.13
2023-05-05T00:57:35.618Z,101267.91
2023-05-05T00:59:38.156Z,101274.88
2023-05-05T01:01:40.033Z,101284.84
2023-05-05T01:03:42.125Z,101282.94
2023-05-05T01:06:08.559Z,101286.28
2023-05-05T01:08:51.172Z,101284.63
2023-05-05T01:10:58.671Z,101279.09
2023-05-05T01:13:27.611Z,101271.03
2023-05-05T01:15:36.067Z,101279.09
2023-05-05T01:17:45.535Z,101273.81
2023-05-05T01:20:07.971Z,101270.19
2023-05-05T01:22:13.709Z,101269.09
2023-05-05T01:24:50.056Z,101249.91
2023-05-05T01:27:07.172Z,101259.75
2023-05-05T01:29:34.526Z,101257.81
2023-05-05T01:31:53.706Z,101240.75
2023-05-05T01:34:01.661Z,101257.22
2023-05-05T01:36:13.505Z,101258.06
2023-05-05T01:38:19.169Z,101256.13
2023-05-05T01:40:26.083Z,101245.31
2023-05-05T01:42:29.267Z,101253.34
2023-05-05T01:44:32.896Z,101244.72
2023-05-05T01:46:36.250Z,101241.22
2023-05-05T01:48:41.053Z,101234.00
2023-05-05T01:50:46.851Z,101232.34
2023-05-05T01:52:50.299Z,101236.53
2023-05-05T01:54:53.095Z,101224.81
2023-05-05T01:56:57.295Z,101240.41
2023-05-05T01:59:01.651Z,101239.53
2023-05-05T02:01:04.523Z,101239.78
2023-05-05T02:03:07.931Z,101246.41
2023-05-05T02:05:10.596Z,101238.84
2023-05-05T02:07:13.953Z,101250.00
2023-05-05T02:09:16.302Z,101234.88
2023-05-05T02:11:19.429Z,101253.34
2023-05-05T02:13:23.389Z,101241.72
2023-05-05T02:15:25.861Z,101242.69
2023-05-05T02:17:28.931Z,101244.59
2023-05-05T02:19:38.595Z,101252.03
2023-05-05T02:21:41.577Z,101250.34
2023-05-05T02:23:44.525Z,101251.47
2023-05-05T02:25:53.134Z,101260.56
2023-05-05T02:27:58.782Z,101273.31
2023-05-05T02:30:04.651Z,101272.47
2023-05-05T02:32:11.553Z,101266.09
2023-05-05T02:34:16.450Z,101287.13
2023-05-05T02:36:22.253Z,101283.28
2023-05-05T02:38:27.883Z,101274.88
2023-05-05T02:40:32.937Z,101278.84
2023-05-05T02:42:41.500Z,101274.16
2023-05-05T02:44:45.395Z,101277.75
2023-05-05T02:46:47.557Z,101284.38
2023-05-05T02:48:49.183Z,101268.88
2023-05-05T02:50:50.796Z,101272.22
2023-05-05T02:52:52.405Z,101245.22
2023-05-05T02:54:54.069Z,101270.56
2023-05-05T02:56:57.273Z,101272.22
2023-05-05T02:59:10.998Z,101271.16
2023-05-05T03:01:54.228Z,101265.38
2023-05-05T03:04:12.495Z,101269.44
2023-05-05T03:06:18.027Z,101267.41
2023-05-05T03:09:09.755Z,101265.53
2023-05-05T03:11:22.890Z,101270.81
2023-05-05T03:13:26.943Z,101255.88
2023-05-05T03:15:32.259Z,101242.78
2023-05-05T03:17:35.169Z,101247.84
2023-05-05T03:19:38.774Z,101245.44
2023-05-05T03:21:40.746Z,101244.34
2023-05-05T03:23:42.593Z,101234.16
2023-05-05T03:25:48.466Z,101236.03
2023-05-05T03:27:50.977Z,101237.16
2023-05-05T03:29:52.660Z,101239.53
2023-05-05T03:31:54.332Z,101252.88
2023-05-05T03:33:55.909Z,101256.75
2023-05-05T03:35:57.435Z,101255.28
2023-05-05T03:37:59.119Z,101266.69
2023-05-05T03:40:00.743Z,101262.28
2023-05-05T03:42:04.908Z,101271.97
2023-05-05T03:44:06.611Z,101276.66
2023-05-05T03:46:08.552Z,101286.66
2023-05-05T03:48:10.209Z,101291.31
2023-05-05T03:50:11.832Z,101286.91
2023-05-05T03:52:15.067Z,101288.78
2023-05-05T03:54:17.065Z,101295.91
2023-05-05T03:56:18.634Z,101296.25
2023-05-05T03:58:20.445Z,101279.34
2023-05-05T04:00:22.088Z,101288.78
2023-05-05T04:02:23.782Z,101293.25
2023-05-05T04:04:25.504Z,101292.19
2023-05-05T04:06:27.638Z,101295.78
2023-05-05T04:08:29.275Z,101297.72
2023-05-05T04:10:30.776Z,101304.31
2023-05-05T04:12:32.549Z,101296.25
2023-05-05T04:14:34.138Z,101295.91
2023-05-05T04:16:35.759Z,101299.03
2023-05-05T04:18:37.604Z,101294.81
2023-05-05T04:20:39.354Z,101292.66
2023-05-05T04:22:41.076Z,101299.03
2023-05-05T04:24:42.746Z,101301.31
2023-05-05T04:26:44.369Z,101299.59
2023-05-05T04:28:45.914Z,101306.81
2023-05-05T04:30:47.458Z,101309.84
2023-05-05T04:32:49.027Z,101307.06
2023-05-05T04:34:50.982Z,101308.16
2023-05-05T04:36:52.515Z,101306.47
2023-05-05T04:38:54.203Z,101304.78
2023-05-05T04:40:55.744Z,101311.75
2023-05-05T04:42:57.327Z,101315.59
2023-05-05T04:44:58.956Z,101313.09
2023-05-05T04:47:01.117Z,101315.84
2023-05-05T04:49:05.856Z,101319.19
2023-05-05T04:51:07.600Z,101318.13
2023-05-05T04:53:09.159Z,101318.47
2023-05-05T04:55:11.676Z,101324.25
2023-05-05T04:57:13.294Z,101319.44
2023-05-05T04:59:15.993Z,101326.41
2023-05-05T05:01:17.711Z,101324.47
2023-05-05T05:03:19.350Z,101323.06
2023-05-05T05:05:21.644Z,101329.19
2023-05-05T05:07:23.414Z,101324.47
2023-05-05T05:09:25.413Z,101325.59
2023-05-05T05:11:27.258Z,101335.06
2023-05-05T05:13:28.846Z,101336.97
2023-05-05T05:15:30.406Z,101337.81
2023-05-05T05:17:32.139Z,101340.81
2023-05-05T05:19:34.135Z,101330.88
2023-05-05T05:21:36.204Z,101326.06
2023-05-05T05:23:37.753Z,101328.94
2023-05-05T05:25:39.297Z,101328.09
2023-05-05T05:27:41.729Z,101330.88
2023-05-05T05:29:43.767Z,101326.06
2023-05-05T05:31:45.360Z,101350.81
2023-05-05T05:33:46.975Z,101343.34
2023-05-05T05:35:48.554Z,101349.72
2023-05-05T05:37:51.753Z,101351.88
2023-05-05T05:39:53.351Z,101352.13
2023-05-05T05:41:55.000Z,101354.88
2023-05-05T05:43:56.593Z,101353.22
2023-05-05T05:45:58.615Z,101354.88
2023-05-05T05:48:00.321Z,101349.84
2023-05-05T05:50:02.473Z,101356.81
2023-05-05T05:52:04.520Z,101348.75
2023-05-05T05:54:06.183Z,101357.41
2023-05-05T05:56:08.201Z,101360.16
2023-05-05T05:58:09.830Z,101364.63
2023-05-05T06:00:12.457Z,101358.38
2023-05-05T06:02:14.216Z,101370.16
2023-05-05T06:04:16.470Z,101366.78
2023-05-05T06:06:18.026Z,101361.75
2023-05-05T06:08:19.549Z,101377.84
2023-05-05T06:12:27.116Z,101365.09
2023-05-05T06:14:28.737Z,101372.31
2023-05-05T06:16:30.510Z,101370.63
2023-05-05T06:18:32.116Z,101363.53
2023-05-05T06:20:33.620Z,101389.16
2023-05-05T06:22:35.197Z,101385.03
2023-05-05T06:24:36.755Z,101390.56
2023-05-05T06:26:38.364Z,101387.22
2023-05-05T06:28:40.171Z,101388.28
2023-05-05T06:30:41.790Z,101393.47
2023-05-05T06:32:43.414Z,101388.28
2023-05-05T06:34:46.953Z,101372.91
2023-05-05T06:36:48.646Z,101384.44
2023-05-05T06:38:50.729Z,101379.75
2023-05-05T06:40:52.541Z,101382.50
2023-05-05T06:42:54.179Z,101380.84
2023-05-05T06:44:55.784Z,101380.22
2023-05-05T06:46:57.353Z,101370.63
2023-05-05T06:48:59.032Z,101359.47
2023-05-05T06:51:00.697Z,101359.56
2023-05-05T06:53:02.333Z,101361.28
2023-05-05T06:55:04.507Z,101362.81
2023-05-05T06:57:06.211Z,101364.28
2023-05-05T06:59:07.802Z,101358.38
2023-05-05T07:01:09.680Z,101367.03
2023-05-05T07:03:11.936Z,101354.53
2023-05-05T07:05:13.610Z,101361.13
2023-05-05T07:07:15.306Z,101376.16
2023-05-05T07:09:17.573Z,101371.34
2023-05-05T07:11:22.067Z,101378.91
2023-05-05T07:13:23.808Z,101378.91
2023-05-05T07:15:29.405Z,101377.00
2023-05-05T07:17:31.515Z,101370.28
2023-05-05T07:19:33.156Z,101389.50
2023-05-05T07:21:35.028Z,101396.09
2023-05-05T07:23:37.892Z,101396.09
2023-05-05T07:25:39.444Z,101387.81
2023-05-05T07:27:41.102Z,101371.69
2023-05-05T07:29:42.644Z,101377.84
2023-05-05T07:31:44.595Z,101384.44
2023-05-05T07:33:46.168Z,101380.00
2023-05-05T07:35:47.734Z,101370.63
2023-05-05T07:37:49.859Z,101368.47
2023-05-05T07:39:51.903Z,101376.16
2023-05-05T07:41:53.554Z,101379.75
2023-05-05T07:43:55.443Z,101362.94
2023-05-05T07:45:57.046Z,101362.34
2023-05-05T07:47:58.668Z,101357.63
2023-05-05T07:50:01.270Z,101358.75
2023-05-05T07:52:02.984Z,101361.84
2023-05-05T07:54:05.043Z,101366.66
2023-05-05T07:56:08.985Z,101364.00
2023-05-05T07:58:11.193Z,101370.72
2023-05-05T08:00:13.686Z,101373.78
2023-05-05T08:02:15.502Z,101373.56
2023-05-05T08:04:17.269Z,101376.41
2023-05-05T08:06:22.124Z,101379.63
2023-05-05T08:08:24.948Z,101389.94
2023-05-05T08:10:27.210Z,101398.44
2023-05-05T08:12:28.865Z,101392.56
2023-05-05T08:14:31.127Z,101385.47
2023-05-05T08:16:32.825Z,101393.16
2023-05-05T08:18:37.565Z,101386.00
2023-05-05T08:20:39.467Z,101394.59
2023-05-05T08:22:42.481Z,101399.75
2023-05-05T08:24:43.977Z,101395.38
2023-05-05T08:26:45.606Z,101405.44
2023-05-05T08:28:47.223Z,101405.97
2023-05-05T08:30:49.694Z,101381.31
2023-05-05T08:32:51.376Z,101391.03
2023-05-05T08:34:52.985Z,101398.47
2023-05-05T08:36:54.800Z,101394.84
2023-05-05T08:38:56.834Z,101391.13
2023-05-05T08:40:58.543Z,101402.84
2023-05-05T08:43:01.376Z,101408.19
2023-05-05T08:45:03.406Z,101404.19
2023-05-05T08:47:06.108Z,101387.34
2023-05-05T08:49:14.075Z,101401.34
2023-05-05T08:51:19.870Z,101395.84
2023-05-05T08:53:55.878Z,101391.63
2023-05-05T08:56:00.868Z,101401.81
2023-05-05T08:58:05.791Z,101389.53
2023-05-05T09:00:09.873Z,101380.72
2023-05-05T09:02:12.509Z,101397.19
2023-05-05T09:04:14.504Z,101393.34
2023-05-05T09:06:16.537Z,101387.84
2023-05-05T09:08:18.577Z,101395.88
2023-05-05T09:10:20.701Z,101400.56
2023-05-05T09:12:23.068Z,101397.81
2023-05-05T09:14:24.675Z,101399.94
2023-05-05T09:16:26.288Z,101397.19
2023-05-05T09:18:29.473Z,101410.34
2023-05-05T09:20:38.358Z,101390.97
2023-05-05T09:22:40.808Z,101398.78
2023-05-05T09:24:54.433Z,101408.72
2023-05-05T09:26:59.453Z,101402.84
2023-05-05T09:29:04.145Z,101397.56
2023-05-05T09:31:12.468Z,101403.13
2023-05-05T09:33:14.239Z,101393.84
2023-05-05T09:35:16.409Z,101399.56
2023-05-05T09:37:27.001Z,101390.69
2023-05-05T09:39:28.497Z,101384.16
2023-05-05T09:41:43.569Z,101398.59
2023-05-05T09:43:51.859Z,101391.97
2023-05-05T09:46:05.638Z,101387.94
2023-05-05T09:48:07.346Z,101389.88
2023-05-05T09:50:11.371Z,101380.50
2023-05-05T09:52:16.215Z,101379.06
2023-05-05T09:54:27.413Z,101386.09
2023-05-05T09:56:39.341Z,101375.91
2023-05-05T09:58:41.884Z,101384.16
2023-05-05T10:00:43.768Z,101375.31
2023-05-05T10:02:45.440Z,101374.91
2023-05-05T10:04:47.015Z,101360.47
2023-05-05T10:06:48.614Z,101353.03
2023-05-05T10:09:00.542Z,101355.56
2023-05-05T10:11:06.352Z,101347.91
2023-05-05T10:13:08.560Z,101347.44
2023-05-05T10:15:11.316Z,101354.06
2023-05-05T10:17:13.316Z,101356.41
2023-05-05T10:19:16.355Z,101350.50
2023-05-05T10:21:20.560Z,101346.28
2023-05-05T10:23:23.487Z,101345.47
2023-05-05T10:25:30.317Z,101330.84
2023-05-05T10:27:34.635Z,101331.06
2023-05-05T10:29:54.924Z,101332.50
2023-05-05T10:31:58.761Z,101338.03
2023-05-05T10:34:03.349Z,101333.59
2023-05-05T10:36:06.664Z,101336.16
2023-05-05T10:38:08.874Z,101322.59
2023-05-05T10:40:11.735Z,101323.88
2023-05-05T10:42:14.967Z,101319.47
2023-05-05T10:44:17.512Z,101324.13
2023-05-05T10:46:19.043Z,101330.41
2023-05-05T10:48:36.030Z,101319.41
2023-05-05T10:50:41.586Z,101324.06
2023-05-05T10:52:52.587Z,101324.97
2023-05-05T10:55:09.202Z,101321.59
2023-05-05T10:57:10.908Z,101315.84
2023-05-05T10:59:31.519Z,101315.63
2023-05-05T11:01:33.882Z,101320.38
2023-05-05T11:03:35.742Z,101315.53
2023-05-05T11:05:57.179Z,101312.38
2023-05-05T11:08:18.543Z,101309.63
2023-05-05T11:10:21.002Z,101322.34
2023-05-05T11:12:22.773Z,101307.50
2023-05-05T11:14:24.274Z,101298.38
2023-05-05T11:16:42.611Z,101300.09
2023-05-05T11:18:44.279Z,101293.09
2023-05-05T11:20:48.818Z,101293.97
2023-05-05T11:23:02.163Z,101286.13
2023-05-05T11:25:23.652Z,101282.97
2023-05-05T11:27:45.279Z,101284.84
2023-05-05T11:30:04.726Z,101290.81
2023-05-05T11:32:13.461Z,101280.63
2023-05-05T11:34:25.715Z,101282.09
2023-05-05T11:36:38.560Z,101283.34
2023-05-05T11:38:58.524Z,101286.91
2023-05-05T11:41:05.674Z,101277.59
2023-05-05T11:43:07.550Z,101274.03
2023-05-05T11:45:24.967Z,101269.94
2023-05-05T11:47:27.862Z,101285.78
2023-05-05T11:49:33.370Z,101273.72
2023-05-05T11:51:35.018Z,101271.19
2023-05-05T11:53:36.594Z,101265.06
2023-05-05T11:55:38.053Z,101258.69
2023-05-05T11:57:39.552Z,101255.34
2023-05-05T11:59:49.981Z,101256.59
2023-05-05T12:01:51.653Z,101250.16
2023-05-05T12:03:53.354Z,101244.44
2023-05-05T12:05:55.436Z,101239.59
2023-05-05T12:07:58.429Z,101239.59
2023-05-05T12:10:00.290Z,101240.66
2023-05-05T12:12:02.672Z,101241.81
2023-05-05T12:14:08.161Z,101237.44
2023-05-05T12:16:10.137Z,101236.53
2023-05-05T12:18:20.712Z,101234.84
2023-05-05T12:20:35.142Z,101235.94
2023-05-05T12:22:36.791Z,101233.16
2023-05-05T12:24:38.355Z,101230.78
2023-05-05T12:26:39.921Z,101224.50
2023-05-05T12:28:47.894Z,101247.53
2023-05-05T12:30:58.934Z,101239.97
2023-05-05T12:33:04.517Z,101232.53
2023-05-05T12:35:06.585Z,101233.00
2023-05-05T12:37:08.082Z,101233.41
2023-05-05T12:39:09.522Z,101216.88
2023-05-05T12:41:10.968Z,101220.47
2023-05-05T12:43:24.582Z,101222.75
2023-05-05T12:45:26.020Z,101224.06
2023-05-05T12:47:31.674Z,101212.25
2023-05-05T12:49:49.130Z,101211.28
2023-05-05T12:51:54.595Z,101204.44
2023-05-05T12:54:07.187Z,101204.22
2023-05-05T12:56:27.623Z,101196.38
2023-05-05T12:58:31.667Z,101201.00
2023-05-05T13:00:33.209Z,101205.13
2023-05-05T13:02:35.176Z,101210.03
2023-05-05T13:04:47.444Z,101206.22
2023-05-05T13:06:49.626Z,101200.25
2023-05-05T13:08:52.068Z,101190.31
2023-05-05T13:10:57.999Z,101184.34
2023-05-05T13:12:59.550Z,101184.72
2023-05-05T13:15:01.172Z,101188.56
2023-05-05T13:17:02.736Z,101182.44
2023-05-05T13:19:04.333Z,101187.72
2023-05-05T13:21:05.865Z,101182.66
2023-05-05T13:23:07.291Z,101176.84
2023-05-05T13:25:08.959Z,101185.25
2023-05-05T13:27:10.631Z,101178.94
2023-05-05T13:29:12.260Z,101177.69
2023-05-05T13:31:13.835Z,101177.59
2023-05-05T13:33:15.402Z,101174.34
2023-05-05T13:35:17.121Z,101177.44
2023-05-05T13:37:18.676Z,101184.31
2023-05-05T13:39:20.207Z,101173.66
2023-05-05T13:41:21.653Z,101175.03
2023-05-05T13:43:23.167Z,101176.00
2023-05-05T13:45:24.582Z,101171.75
2023-05-05T13:47:26.113Z,101168.53
2023-05-05T13:49:27.633Z,101157.28
2023-05-05T13:51:30.143Z,101174.50
2023-05-05T13:53:31.934Z,101166.88
2023-05-05T13:55:33.375Z,101164.72
2023-05-05T13:57:34.977Z,101160.03
2023-05-05T13:59:36.500Z,101156.91
2023-05-05T14:01:38.625Z,101158.16
2023-05-05T14:03:40.364Z,101161.28
2023-05-05T14:05:46.171Z,101157.47
2023-05-05T14:07:47.668Z,101160.25
2023-05-05T14:09:49.150Z,101159.50
2023-05-05T14:11:50.834Z,101159.06
2023-05-05T14:13:52.767Z,101153.00
2023-05-05T14:15:54.224Z,101155.31
2023-05-05T14:17:56.029Z,101149.34
2023-05-05T14:19:57.708Z,101157.16
2023-05-05T14:21:59.477Z,101156.69
2023-05-05T14:24:01.041Z,101148.78
2023-05-05T14:26:02.738Z,101146.22
2023-05-05T14:28:04.320Z,101146.34
2023-05-05T14:30:06.524Z,101149.31
2023-05-05T14:32:07.998Z,101155.66
2023-05-05T14:34:10.058Z,101143.56
2023-05-05T14:36:11.659Z,101152.19
2023-05-05T14:38:13.191Z,101148.22
2023-05-05T14:40:14.903Z,101155.66
2023-05-05T14:42:16.372Z,101156.13
2023-05-05T14:44:18.098Z,101165.09
2023-05-05T14:46:19.766Z,101161.97
2023-05-05T14:48:22.368Z,101156.44
2023-05-05T14:50:24.072Z,101155.16
2023-05-05T14:52:25.697Z,101157.69
2023-05-05T14:54:28.851Z,101163.78
2023-05-05T14:56:30.585Z,101148.50
2023-05-05T14:58:32.156Z,101152.91
2023-05-05T15:00:33.779Z,101149.31
2023-05-05T15:02:35.290Z,101148.84
2023-05-05T15:04:36.839Z,101154.34
2023-05-05T15:06:38.291Z,101151.97
2023-05-05T15:08:39.867Z,101154.72
2023-05-05T15:10:41.351Z,101148.97
2023-05-05T15:12:43.513Z,101154.03
2023-05-05T15:14:45.026Z,101156.41
2023-05-05T15:16:46.890Z,101160.69
2023-05-05T15:18:48.588Z,101166.66
2023-05-05T15:20:50.051Z,101156.91
2023-05-05T15:22:51.505Z,101171.72
2023-05-05T15:24:53.101Z,101165.38
2023-05-05T15:26:54.618Z,101165.84
2023-05-05T15:28:56.556Z,101156.06
2023-05-05T15:31:00.015Z,101160.72
2023-05-05T15:33:01.654Z,101159.66
2023-05-05T15:35:03.188Z,101168.00
2023-05-05T15:37:04.577Z,101170.59
2023-05-05T15:39:06.042Z,101172.50
2023-05-05T15:41:08.222Z,101173.03
2023-05-05T15:43:09.780Z,101174.72
2023-05-05T15:45:12.305Z,101177.88
2023-05-05T15:47:14.045Z,101185.03
2023-05-05T15:49:15.603Z,101177.66
2023-05-05T15:51:17.164Z,101184.91
2023-05-05T15:53:18.723Z,101189.41
2023-05-05T15:55:20.593Z,101188.16
2023-05-05T15:57:22.038Z,101184.34
2023-05-05T15:59:23.489Z,101191.94
2023-05-05T16:01:25.049Z,101191.47
2023-05-05T16:03:26.619Z,101178.94
2023-05-05T16:05:28.182Z,101183.16
2023-05-05T16:07:29.764Z,101174.91
2023-05-05T16:09:31.315Z,101174.91
2023-05-05T16:11:32.814Z,101176.56
2023-05-05T16:13:34.608Z,101174.44
2023-05-05T16:15:36.163Z,101181.00
2023-05-05T16:17:37.717Z,101176.31
2023-05-05T16:19:39.309Z,101174.44
2023-05-05T16:21:40.888Z,101184.34
2023-05-05T16:23:42.466Z,101178.03
2023-05-05T16:25:44.739Z,101181.84
2023-05-05T16:27:46.222Z,101176.31
2023-05-05T16:29:47.700Z,101177.19
2023-05-05T16:31:49.611Z,101178.84
2023-05-05T16:33:51.733Z,101183.53
2023-05-05T16:35:53.368Z,101175.34
2023-05-05T16:37:55.069Z,101182.06
2023-05-05T16:39:56.508Z,101189.63
2023-05-05T16:41:57.912Z,101178.84
2023-05-05T16:44:01.434Z,101178.41
2023-05-05T16:46:06.253Z,101185.00
2023-05-05T16:48:09.098Z,101186.66
2023-05-05T16:50:11.087Z,101178.16
2023-05-05T16:52:12.569Z,101184.13
2023-05-05T16:54:14.030Z,101177.78
2023-05-05T16:56:15.952Z,101179.47
2023-05-05T16:58:17.805Z,101173.53
2023-05-05T17:00:19.362Z,101169.06
2023-05-05T17:02:20.942Z,101168.84
2023-05-05T17:04:22.353Z,101169.31
2023-05-05T17:06:23.811Z,101150.41
2023-05-05T17:08:25.495Z,101163.88
2023-05-05T17:10:27.396Z,101171.06
2023-05-05T17:12:28.925Z,101166.19
2023-05-05T17:14:30.562Z,101155.22
2023-05-05T17:16:32.388Z,101170.59
2023-05-05T17:18:34.014Z,101163.41
2023-05-05T17:20:36.276Z,101171.06
2023-05-05T17:22:38.008Z,101165.53
2023-05-05T17:24:39.525Z,101171.91
2023-05-05T17:26:41.443Z,101177.19
2023-05-05T17:28:43.229Z,101182.28
2023-05-05T17:30:44.705Z,101197.97
2023-05-05T17:32:47.201Z,101203.13
2023-05-05T17:34:48.692Z,101212.44
2023-05-05T17:36:50.112Z,101219.44
2023-05-05T17:38:51.522Z,101223.72
2023-05-05T17:40:53.138Z,101210.19
2023-05-05T17:42:55.026Z,101216.56
2023-05-05T17:44:56.722Z,101212.72
2023-05-05T17:46:58.494Z,101205.53
2023-05-05T17:49:00.564Z,101203.38
2023-05-05T17:51:02.374Z,101204.84
2023-05-05T17:53:04.409Z,101205.47
2023-05-05T17:55:06.321Z,101201.66
2023-05-05T17:57:07.811Z,101198.03
2023-05-05T17:59:09.212Z,101205.47
2023-05-05T18:01:19.570Z,101208.00
2023-05-05T18:03:21.218Z,101198.13
2023-05-05T18:05:22.806Z,101220.25
2023-05-05T18:07:24.193Z,101213.03
2023-05-05T18:09:26.561Z,101208.81
2023-05-05T18:11:30.644Z,101210.50
2023-05-05T18:13:32.132Z,101220.91
2023-05-05T18:15:33.839Z,101223.69
2023-05-05T18:17:35.553Z,101221.38
2023-05-05T18:19:38.039Z,101217.53
2023-05-05T18:21:39.564Z,101223.25
2023-05-05T18:23:41.216Z,101223.03
2023-05-05T18:25:42.734Z,101223.25
2023-05-05T18:27:44.442Z,101225.56
2023-05-05T18:29:45.942Z,101227.91
2023-05-05T18:31:52.018Z,101226.34
2023-05-05T18:33:53.776Z,101227.22
2023-05-05T18:35:55.202Z,101218.63
2023-05-05T18:37:56.725Z,101214.75
2023-05-05T18:39:58.425Z,101216.59
2023-05-05T18:42:00.013Z,101218.22
2023-05-05T18:44:01.481Z,101227.00
2023-05-05T18:46:02.921Z,101229.09
2023-05-05T18:48:04.647Z,101222.28
2023-05-05T18:50:07.020Z,101217.13
2023-05-05T18:52:08.776Z,101215.00
2023-05-05T18:54:10.275Z,101231.09
2023-05-05T18:56:11.797Z,101232.28
2023-05-05T18:58:13.462Z,101235.03
2023-05-05T19:00:15.515Z,101239.25
2023-05-05T19:02:17.884Z,101239.25
2023-05-05T19:04:30.745Z,101240.94
2023-05-05T19:06:33.117Z,101246.00
2023-05-05T19:08:34.649Z,101255.72
2023-05-05T19:10:36.301Z,101252.97
2023-05-05T19:12:37.815Z,101255.72
2023-05-05T19:14:39.264Z,101260.38
2023-05-05T19:16:40.784Z,101260.13
2023-05-05T19:18:42.648Z,101256.31
2023-05-05T19:20:44.209Z,101260.78
2023-05-05T19:22:45.656Z,101260.53
2023-05-05T19:24:47.331Z,101255.84
2023-05-05T19:26:48.847Z,101247.34
2023-05-05T19:28:50.514Z,101257.31
2023-05-05T19:30:52.073Z,101255.41
2023-05-05T19:32:53.798Z,101256.00
2023-05-05T19:34:55.828Z,101263.19
2023-05-05T19:36:57.247Z,101274.22
2023-05-05T19:39:00.283Z,101283.31
2023-05-05T19:41:01.729Z,101281.22
2023-05-05T19:43:03.188Z,101283.13
2023-05-05T19:45:04.964Z,101277.38
2023-05-05T19:47:07.193Z,101284.59
2023-05-05T19:49:08.813Z,101286.50
2023-05-05T19:51:10.416Z,101289.88
2023-05-05T19:53:11.801Z,101292.38
2023-05-05T19:55:13.330Z,101290.50
2023-05-05T19:57:15.022Z,101299.59
2023-05-05T19:59:16.817Z,101309.56
2023-05-05T20:01:18.349Z,101306.81
2023-05-05T20:03:19.870Z,101312.09
2023-05-05T20:05:21.492Z,101312.09
2023-05-05T20:07:22.921Z,101312.94
2023-05-05T20:09:24.326Z,101309.94
2023-05-05T20:11:26.083Z,101314.38
2023-05-05T20:13:27.513Z,101316.91
2023-05-05T20:15:30.632Z,101323.03
2023-05-05T20:17:32.736Z,101323.84
2023-05-05T20:19:34.290Z,101317.28
2023-05-05T20:21:35.947Z,101317.03
2023-05-05T20:23:37.530Z,101311.53
2023-05-05T20:25:39.065Z,101296.38
2023-05-05T20:27:41.357Z,101308.53
2023-05-05T20:29:42.856Z,101311.28
2023-05-05T20:31:44.374Z,101311.28
2023-05-05T20:33:45.958Z,101302.19
2023-05-05T20:35:48.540Z,101298.97
2023-05-05T20:37:51.432Z,101291.75
2023-05-05T20:39:53.298Z,101300.88
2023-05-05T20:41:54.739Z,101297.03
2023-05-05T20:43:56.143Z,101299.56
2023-05-05T20:45:57.623Z,101301.50
2023-05-05T20:47:59.760Z,101296.81
2023-05-05T20:50:01.666Z,101301.84
2023-05-05T20:52:03.340Z,101295.75
2023-05-05T20:54:04.949Z,101297.19
2023-05-05T20:56:08.618Z,101296.97
2023-05-05T20:58:10.817Z,101288.69
2023-05-05T21:00:12.625Z,101295.88
2023-05-05T21:02:14.092Z,101295.88
2023-05-05T21:04:15.644Z,101287.34
2023-05-05T21:06:19.393Z,101291.22
2023-05-05T21:08:21.228Z,101287.59
2023-05-05T21:10:22.838Z,101288.47
2023-05-05T21:12:24.309Z,101289.28
2023-05-05T21:14:25.848Z,101288.00
2023-05-05T21:16:27.416Z,101286.06
2023-05-05T21:18:29.058Z,101281.63
2023-05-05T21:20:30.545Z,101286.66
2023-05-05T21:22:32.001Z,101283.06
2023-05-05T21:24:33.463Z,101280.91
2023-05-05T21:26:35.076Z,101282.84
2023-05-05T21:28:36.537Z,101282.00
2023-05-05T21:30:38.378Z,101286.41
2023-05-05T21:32:40.281Z,101280.91
2023-05-05T21:34:41.774Z,101284.53
2023-05-05T21:36:43.233Z,101288.13
2023-05-05T21:38:44.738Z,101284.88
2023-05-05T21:40:46.268Z,101277.44
2023-05-05T21:42:47.673Z,101276.38
2023-05-05T21:44:49.237Z,101281.06
2023-05-05T21:46:50.748Z,101277.44
2023-05-05T21:48:52.316Z,101277.22
2023-05-05T21:50:54.403Z,101271.69
2023-05-05T21:52:55.953Z,101270.03
2023-05-05T21:54:57.632Z,101269.16
2023-05-05T21:57:00.172Z,101267.03
2023-05-05T21:59:01.707Z,101266.78
2023-05-05T22:01:03.370Z,101261.88
2023-05-05T22:03:05.176Z,101261.88
2023-05-05T22:05:07.286Z,101264.63
2023-05-05T22:07:08.762Z,101262.69
2023-05-05T22:09:10.384Z,101253.59
2023-05-05T22:11:11.883Z,101255.53
2023-05-05T22:13:14.555Z,101250.84
2023-05-05T22:15:19.204Z,101252.75
2023-05-05T22:17:20.657Z,101248.09
2023-05-05T22:19:22.201Z,101245.94
2023-05-05T22:21:23.757Z,101251.47
2023-05-05T22:23:25.327Z,101249.31
2023-05-05T22:25:26.864Z,101241.84
2023-05-05T22:27:28.351Z,101248.22
2023-05-05T22:29:29.820Z,101246.53
2023-05-05T22:31:31.334Z,101251.81
2023-05-05T22:33:32.953Z,101247.38
2023-05-05T22:35:34.462Z,101241.03
2023-05-05T22:37:36.364Z,101242.72
2023-05-05T22:39:37.776Z,101247.13
2023-05-05T22:41:39.250Z,101242.25
2023-05-05T22:43:40.733Z,101237.56
2023-05-05T22:45:43.163Z,101240.06
2023-05-05T22:47:45.182Z,101248.16
2023-05-05T22:49:47.211Z,101239.00
2023-05-05T22:51:48.714Z,101240.91
2023-05-05T22:53:50.150Z,101239.00
2023-05-05T22:55:52.037Z,101249.41
2023-05-05T22:57:53.509Z,101243.06
2023-05-05T22:59:55.005Z,101243.31
2023-05-05T23:01:56.472Z,101242.84
2023-05-05T23:03:58.069Z,101246.22
2023-05-05T23:05:59.585Z,101240.47
2023-05-05T23:08:01.278Z,101240.22
2023-05-05T23:10:03.611Z,101241.31
2023-05-05T23:12:05.215Z,101237.47
2023-05-05T23:14:06.747Z,101238.56
2023-05-05T23:16:08.369Z,101240.47
2023-05-05T23:18:09.899Z,101237.69
2023-05-05T23:20:13.050Z,101238.56
2023-05-05T23:22:14.723Z,101237.47
2023-05-05T23:24:16.213Z,101237.22
2023-05-05T23:26:17.674Z,101240.84
2023-05-05T23:28:20.215Z,101230.41
2023-05-05T23:30:21.736Z,101229.56